Time;durP1;ratioP1;P1;durP2;ratioP2;P2;SDS_P1;SDS_P2;PMS_P1;PMS_P2;Temp;Humidity;BMP_temperature;BMP_pressure;BME280_temperature;BME280_humidity;BME280_pressure;Samples;Min_cycle;Max_cycle;Signal;HPM_P1;HPM_P2
2023/02/10 00:02:59;;;;;;;;;44.20;35.60;;;;;2.89;38.39;100446.19;7736393;22;96444;-67
2023/02/10 00:06:05;;;;;;;;;37.75;32.75;;;;;2.75;38.12;100417.25;7709626;22;96346;-67
2023/02/10 00:09:12;;;;;;;;;41.40;32.80;;;;;2.84;38.20;100437.75;7709540;22;96231;-67
2023/02/10 00:12:16;;;;;;;;;35.80;30.00;;;;;2.82;38.01;100453.88;7709750;22;96281;-66
2023/02/10 00:15:19;;;;;;;;;38.80;33.00;;;;;2.83;37.75;100436.09;7736455;22;96152;-67
2023/02/10 00:18:22;;;;;;;;;32.25;28.25;;;;;2.88;37.25;100444.53;7736786;22;96213;-67
2023/02/10 00:21:27;;;;;;;;;30.80;27.00;;;;;2.75;37.55;100417.25;7709221;22;96324;-67
2023/02/10 00:24:30;;;;;;;;;35.40;30.00;;;;;2.89;37.24;100444.38;7709446;22;98469;-67
2023/02/10 00:27:33;;;;;;;;;34.00;30.25;;;;;2.92;37.54;100448.59;7736944;22;96275;-67
2023/02/10 00:30:38;;;;;;;;;34.20;30.20;;;;;2.90;37.56;100442.56;7709220;22;97115;-67
2023/02/10 00:33:42;;;;;;;;;30.50;28.00;;;;;2.85;36.97;100444.78;7710718;22;96602;-67
2023/02/10 00:36:49;;;;;;;;;35.75;30.00;;;;;2.91;37.18;100454.91;7737414;22;96653;-67
2023/02/10 00:39:55;;;;;;;;;32.40;30.00;;;;;2.77;37.25;100461.44;7710447;22;96211;-67
2023/02/10 00:42:58;;;;;;;;;31.60;28.20;;;;;2.84;37.16;100464.38;7709490;22;96645;-67
2023/02/10 00:46:01;;;;;;;;;32.40;30.00;;;;;2.87;37.60;100469.47;7709653;22;96137;-66
2023/02/10 00:49:06;;;;;;;;;34.25;30.00;;;;;2.86;37.00;100457.97;7737005;22;96043;-67
2023/02/10 00:52:12;;;;;;;;;30.20;27.00;;;;;2.78;37.53;100452.47;7709953;22;96707;-67
2023/02/10 00:55:16;;;;;;;;;34.00;30.00;;;;;2.78;37.29;100454.28;7737450;22;96780;-68
2023/02/10 00:58:19;;;;;;;;;32.00;30.00;;;;;2.82;37.34;100466.38;7709966;22;96280;-67
2023/02/10 01:01:22;;;;;;;;;36.40;32.40;;;;;2.75;37.20;100462.53;7708803;22;96601;-67
2023/02/10 01:04:26;;;;;;;;;29.60;28.00;;;;;2.75;37.38;100460.72;7736697;22;96363;-67
2023/02/10 01:07:31;;;;;;;;;32.00;30.00;;;;;2.67;37.36;100460.56;7736750;22;96765;-67
2023/02/10 01:10:35;;;;;;;;;28.75;27.50;;;;;2.56;37.29;100445.50;7736479;22;96384;-67
2023/02/10 01:13:40;;;;;;;;;31.50;30.00;;;;;2.70;37.22;100454.94;7709296;22;96358;-67
2023/02/10 01:16:43;;;;;;;;;32.00;29.80;;;;;2.65;37.25;100440.34;7709092;22;96280;-67
2023/02/10 01:19:47;;;;;;;;;33.00;29.60;;;;;2.65;37.69;100440.34;7683682;22;98377;-67
2023/02/10 01:22:53;;;;;;;;;31.50;29.25;;;;;2.66;37.69;100434.03;7736672;22;96283;-67
2023/02/10 01:25:56;;;;;;;;;32.40;30.00;;;;;2.65;37.55;100435.00;7709893;22;96578;-67
2023/02/10 01:28:59;;;;;;;;;29.80;28.00;;;;;2.72;36.95;100439.69;7683734;22;96641;-67
2023/02/10 01:32:03;;;;;;;;;29.00;25.67;;;;;2.77;36.92;100442.78;7709594;22;96162;-67
2023/02/10 01:35:06;;;;;;;;;28.20;25.20;;;;;2.70;36.55;100415.00;7736904;22;97028;-67
2023/02/10 01:38:11;;;;;;;;;26.20;23.60;;;;;2.80;36.58;100433.69;7709288;22;96236;-67
2023/02/10 01:41:17;;;;;;;;;26.80;24.80;;;;;2.77;36.92;100425.97;7736492;22;96675;-67
2023/02/10 01:45:12;;;;;;;;;27.25;24.75;;;;;2.69;37.41;100405.31;7709315;22;96934;-67
2023/02/10 01:48:16;;;;;;;;;31.60;28.00;;;;;2.66;37.35;100415.41;7709194;22;96303;-67
2023/02/10 01:51:24;;;;;;;;;40.00;33.00;;;;;2.51;37.58;100404.28;7736165;22;96828;-67
2023/02/10 01:54:34;;;;;;;;;31.40;29.00;;;;;2.50;37.18;100410.56;7735930;22;96218;-67
2023/02/10 01:57:40;;;;;;;;;30.00;27.00;;;;;2.53;37.39;100405.00;7709370;22;96273;-67
2023/02/10 02:00:43;;;;;;;;;24.40;22.60;;;;;2.49;37.42;100407.06;7709221;22;96235;-67
2023/02/10 02:03:47;;;;;;;;;34.60;30.60;;;;;2.47;37.62;100411.69;7709460;22;96575;-67
2023/02/10 02:06:50;;;;;;;;;28.00;27.00;;;;;2.45;37.64;100405.63;7738436;22;96760;-68
2023/02/10 02:09:58;;;;;;;;;30.40;25.60;;;;;2.36;37.72;100409.09;7711974;22;96219;-67
2023/02/10 02:13:08;;;;;;;;;29.20;26.00;;;;;2.31;37.91;100410.47;7712487;22;96207;-67
2023/02/10 02:16:25;;;;;;;;;33.00;30.00;;;;;2.33;38.07;100414.69;7711507;22;97005;-67
2023/02/10 02:23:55;;;;;;;;;23.80;20.80;;;;;2.38;37.29;100390.34;7658516;22;98922;-67
2023/02/10 02:27:26;;;;;;;;;25.00;24.00;;;;;2.45;37.48;100381.69;7710206;22;97430;-67
2023/02/10 02:31:02;;;;;;;;;27.00;25.60;;;;;2.43;37.19;100366.84;7711025;22;97727;-67
2023/02/10 02:34:14;;;;;;;;;29.00;26.50;;;;;2.61;37.23;100387.38;7683311;22;96597;-67
2023/02/10 02:37:22;;;;;;;;;28.00;26.00;;;;;2.59;37.07;100397.28;7711993;22;96796;-67
2023/02/10 02:40:25;;;;;;;;;23.40;22.00;;;;;2.47;37.39;100366.44;7738414;22;96160;-67
2023/02/10 02:43:28;;;;;;;;;23.20;22.00;;;;;2.58;37.32;100390.31;7738262;22;96846;-67
2023/02/10 02:46:42;;;;;;;;;27.50;26.50;;;;;2.51;37.22;100388.28;7684171;22;96592;-67
2023/02/10 02:49:57;;;;;;;;;27.00;25.00;;;;;2.49;37.36;100385.75;7712964;22;96781;-67
2023/02/10 02:53:10;;;;;;;;;28.40;25.40;;;;;2.41;37.83;100390.06;7712355;22;96987;-67
2023/02/10 02:56:25;;;;;;;;;25.00;23.60;;;;;2.40;37.61;100386.56;7711984;22;96229;-67
2023/02/10 02:59:35;;;;;;;;;27.00;24.00;;;;;2.40;37.61;100380.41;7712618;22;96740;-67
2023/02/10 03:02:41;;;;;;;;;28.00;24.25;;;;;2.33;37.60;100385.44;7738998;22;96420;-67
2023/02/10 03:05:45;;;;;;;;;26.75;24.25;;;;;2.26;37.88;100384.25;7712331;22;96347;-67
2023/02/10 03:08:49;;;;;;;;;27.20;25.00;;;;;2.35;37.67;100379.94;7686657;22;96707;-67
2023/02/10 03:11:53;;;;;;;;;27.50;23.75;;;;;2.24;38.07;100394.22;7739341;22;96308;-67
2023/02/10 03:14:56;;;;;;;;;29.00;28.00;;;;;2.25;37.48;100392.41;7711247;22;98735;-67
2023/02/10 03:17:59;;;;;;;;;28.40;26.40;;;;;2.22;37.71;100374.84;7739292;22;96520;-67
2023/02/10 03:21:04;;;;;;;;;26.00;25.00;;;;;2.29;37.81;100384.00;7711727;22;96341;-67
2023/02/10 03:24:08;;;;;;;;;30.00;26.00;;;;;2.31;37.38;100383.84;7712744;22;96814;-67
2023/02/10 03:27:12;;;;;;;;;24.20;23.20;;;;;2.38;37.63;100387.69;7739028;22;96169;-67
2023/02/10 03:30:15;;;;;;;;;23.80;21.20;;;;;2.47;37.18;100390.38;7740635;22;96347;-67
2023/02/10 03:33:18;;;;;;;;;24.00;22.00;;;;;2.45;37.75;100402.97;7712454;22;96776;-67
2023/02/10 03:36:23;;;;;;;;;28.00;26.00;;;;;2.49;37.35;100399.06;7740322;22;96193;-67
2023/02/10 03:39:26;;;;;;;;;25.00;22.00;;;;;2.44;37.07;100392.50;7740694;22;96314;-67
2023/02/10 03:42:30;;;;;;;;;25.00;23.00;;;;;2.52;37.15;100405.97;7739962;22;96480;-67
2023/02/10 03:45:33;;;;;;;;;28.00;27.00;;;;;2.56;37.33;100400.22;7740574;22;96167;-67
2023/02/10 03:48:37;;;;;;;;;28.00;26.00;;;;;2.59;37.07;100388.50;7739646;22;96275;-67
2023/02/10 03:51:41;;;;;;;;;26.20;24.20;;;;;2.56;37.26;100392.25;7739265;22;96853;-68
2023/02/10 03:54:45;;;;;;;;;36.00;32.00;;;;;2.53;37.67;100399.66;7712007;22;96551;-67
2023/02/10 03:57:48;;;;;;;;;30.00;27.40;;;;;2.53;37.24;100403.19;7739005;22;96282;-67
2023/02/10 04:00:52;;;;;;;;;29.75;27.50;;;;;2.57;37.65;100401.09;7737277;22;96142;-67
2023/02/10 04:03:55;;;;;;;;;32.20;27.60;;;;;2.60;37.15;100409.63;7711005;22;96537;-67
2023/02/10 04:07:02;;;;;;;;;32.80;29.40;;;;;2.62;37.47;100412.19;7710637;22;97491;-68
2023/02/10 04:10:06;;;;;;;;;33.60;30.00;;;;;2.56;37.60;100405.56;7738817;22;96225;-68
2023/02/10 04:13:09;;;;;;;;;31.00;30.00;;;;;2.43;37.46;100406.75;7685664;22;96419;-67
2023/02/10 04:16:15;;;;;;;;;34.40;30.40;;;;;2.42;37.70;100418.38;7738827;22;96282;-67
2023/02/10 04:19:19;;;;;;;;;33.60;30.00;;;;;2.47;37.55;100414.34;7738792;22;96837;-67
2023/02/10 04:22:23;;;;;;;;;33.60;30.00;;;;;2.44;37.46;100413.78;7686063;22;99081;-68
2023/02/10 04:25:27;;;;;;;;;33.00;30.00;;;;;2.45;37.45;100418.94;7739883;22;96612;-67
2023/02/10 04:28:31;;;;;;;;;35.40;30.00;;;;;2.44;37.62;100411.13;7686210;22;98460;-67
2023/02/10 04:31:34;;;;;;;;;34.80;30.60;;;;;2.37;38.01;100421.44;7710259;22;96618;-68
2023/02/10 04:34:37;;;;;;;;;39.00;32.25;;;;;2.38;37.94;100415.16;7738653;22;96526;-67
2023/02/10 04:37:42;;;;;;;;;43.40;35.00;;;;;2.33;37.91;100417.38;7685691;22;97112;-67
2023/02/10 04:40:46;;;;;;;;;30.80;29.20;;;;;2.29;38.14;100418.59;7735672;22;96898;-67
2023/02/10 04:43:49;;;;;;;;;31.00;30.00;;;;;2.19;38.37;100425.69;7735608;22;96906;-67
2023/02/10 04:46:52;;;;;;;;;31.60;29.00;;;;;2.15;38.27;100424.28;7709412;22;96483;-67
2023/02/10 04:49:56;;;;;;;;;32.00;30.00;;;;;2.16;38.41;100429.44;7737315;22;96288;-67
2023/02/10 04:53:00;;;;;;;;;32.60;29.00;;;;;2.17;38.00;100433.78;7708469;22;96677;-67
2023/02/10 04:56:04;;;;;;;;;37.25;32.00;;;;;2.21;38.15;100439.69;7708436;22;97419;-68
2023/02/10 04:59:08;;;;;;;;;37.00;33.00;;;;;2.23;38.41;100442.22;7736010;22;96368;-67
2023/02/10 05:02:11;;;;;;;;;40.20;35.00;;;;;2.17;38.53;100443.59;7735958;22;96330;-68
2023/02/10 05:05:14;;;;;;;;;37.80;33.00;;;;;2.20;38.69;100434.53;7736604;22;96295;-67
2023/02/10 05:08:22;;;;;;;;;39.25;34.00;;;;;2.24;38.77;100441.25;7736453;22;96153;-67
2023/02/10 05:11:25;;;;;;;;;45.00;36.00;;;;;2.20;39.03;100426.53;7708935;22;96479;-67
2023/02/10 05:14:29;;;;;;;;;40.00;35.00;;;;;2.32;39.21;100441.44;7709828;22;96288;-67
2023/02/10 05:17:32;;;;;;;;;41.50;34.00;;;;;2.37;39.11;100437.41;7736191;22;96234;-67
2023/02/10 05:20:36;;;;;;;;;46.00;36.00;;;;;2.41;38.99;100441.50;7737217;22;96189;-67
2023/02/10 05:23:41;;;;;;;;;45.00;36.00;;;;;2.44;39.05;100441.25;7709701;22;96599;-67
2023/02/10 05:26:44;;;;;;;;;45.00;38.00;;;;;2.38;39.56;100454.22;7710348;22;96785;-67
2023/02/10 05:29:48;;;;;;;;;47.00;38.40;;;;;2.39;39.66;100454.09;7737739;22;96545;-67
2023/02/10 05:32:51;;;;;;;;;48.80;38.00;;;;;2.40;39.31;100455.78;7683323;22;96452;-68
2023/02/10 05:35:54;;;;;;;;;48.00;39.00;;;;;2.32;40.01;100462.72;7709326;22;96552;-67
2023/02/10 05:42:20;;;;;;;;;49.00;39.60;;;;;2.34;40.19;100471.44;7708564;22;96376;-66
2023/02/10 05:45:24;;;;;;;;;50.75;41.00;;;;;2.33;39.64;100470.59;7709108;22;96239;-67
2023/02/10 05:48:27;;;;;;;;;50.00;39.00;;;;;2.31;40.38;100466.34;7708682;22;96870;-66
2023/02/10 05:51:30;;;;;;;;;49.80;40.80;;;;;2.13;40.31;100464.31;7735751;22;96206;-67
2023/02/10 05:54:35;;;;;;;;;50.00;42.00;;;;;2.09;40.29;100472.66;7708733;22;96685;-66
2023/02/10 05:57:39;;;;;;;;;50.00;41.00;;;;;2.13;40.67;100474.09;7734684;22;96674;-67
2023/02/10 06:00:42;;;;;;;;;49.60;41.60;;;;;2.02;40.67;100469.66;7680179;22;99070;-66
2023/02/10 06:03:45;;;;;;;;;52.00;42.00;;;;;2.11;40.70;100474.22;7707797;22;96335;-66
2023/02/10 06:06:49;;;;;;;;;48.75;39.00;;;;;2.09;40.14;100470.00;7682700;22;97154;-66
2023/02/10 06:09:53;;;;;;;;;47.40;36.00;;;;;2.03;40.66;100468.72;7709151;22;96522;-67
2023/02/10 06:12:57;;;;;;;;;51.60;38.60;;;;;2.10;40.34;100474.38;7706248;22;98377;-67
2023/02/10 06:16:01;;;;;;;;;46.50;38.50;;;;;2.06;40.85;100478.22;7682024;22;99080;-67
2023/02/10 06:19:04;;;;;;;;;48.60;39.00;;;;;2.09;40.84;100470.00;7734275;22;96193;-66
2023/02/10 06:22:10;;;;;;;;;45.20;37.40;;;;;2.23;41.06;100477.66;7681837;22;96532;-67
2023/02/10 06:25:15;;;;;;;;;48.00;39.20;;;;;2.19;40.81;100481.56;7706973;22;98966;-66
2023/02/10 06:28:18;;;;;;;;;47.25;39.25;;;;;2.35;40.86;100483.75;7708633;22;96592;-67
2023/02/10 06:31:22;;;;;;;;;48.20;38.00;;;;;2.42;40.82;100492.91;7708210;22;96439;-67
2023/02/10 06:34:25;;;;;;;;;50.00;41.00;;;;;3.00;39.46;100478.91;7736430;22;96344;-67
2023/02/10 06:37:30;;;;;;;;;48.00;39.40;;;;;4.40;37.24;100482.13;7735484;22;96319;-67
2023/02/10 06:40:34;;;;;;;;;52.00;41.75;;;;;5.88;34.48;100460.59;7708491;22;98380;-67
2023/02/10 06:43:38;;;;;;;;;56.00;44.00;;;;;7.46;31.96;100466.44;7709388;22;96327;-67
2023/02/10 06:46:41;;;;;;;;;53.40;43.60;;;;;8.92;29.76;100479.91;7708304;22;96649;-67
2023/02/10 06:49:44;;;;;;;;;55.00;44.00;;;;;10.04;27.99;100477.66;7735005;22;96254;-67
2023/02/10 06:52:48;;;;;;;;;53.00;44.00;;;;;10.95;26.49;100476.69;7736740;22;97110;-67
2023/02/10 06:55:56;;;;;;;;;49.60;40.60;;;;;11.73;24.83;100453.44;7735744;22;97180;-68
2023/02/10 06:59:00;;;;;;;;;55.00;43.20;;;;;12.66;24.14;100484.09;7735681;22;96255;-66
2023/02/10 07:02:04;;;;;;;;;48.67;40.00;;;;;13.55;23.02;100490.47;7709126;22;96689;-67
2023/02/10 07:05:09;;;;;;;;;50.00;41.00;;;;;14.54;22.01;100488.84;7738026;22;96765;-68
2023/02/10 07:08:12;;;;;;;;;53.00;42.00;;;;;15.39;20.80;100477.03;7715840;22;96637;-68
2023/02/10 07:11:17;;;;;;;;;54.25;43.50;;;;;16.24;20.23;100481.22;7717341;22;96587;-68
2023/02/10 07:14:20;;;;;;;;;51.00;40.00;;;;;16.73;19.86;100489.44;7722622;22;96377;-68
2023/02/10 07:17:23;;;;;;;;;50.00;40.60;;;;;17.41;18.73;100467.56;7699563;22;98764;-68
2023/02/10 07:20:27;;;;;;;;;52.40;43.00;;;;;18.20;18.24;100491.09;7699208;22;96611;-68
2023/02/10 07:23:30;;;;;;;;;52.00;42.00;;;;;18.89;17.77;100500.53;7720444;22;98365;-67
2023/02/10 07:26:40;;;;;;;;;49.00;40.00;;;;;19.39;17.06;100493.50;7747998;22;96274;-69
2023/02/10 07:29:43;;;;;;;;;50.00;41.00;;;;;19.93;16.75;100487.78;7744948;22;96253;-69
2023/02/10 07:32:47;;;;;;;;;50.50;40.50;;;;;20.32;15.87;100495.16;7691244;22;99779;-67
2023/02/10 07:35:50;;;;;;;;;50.00;40.00;;;;;20.65;15.83;100483.38;7717902;22;98443;-69
2023/02/10 07:38:53;;;;;;;;;50.00;41.00;;;;;21.29;15.60;100484.69;7741289;22;96324;-69
2023/02/10 07:41:58;;;;;;;;;45.00;37.00;;;;;21.82;15.15;100481.22;7712168;22;96585;-69
2023/02/10 07:45:12;;;;;;;;;46.80;37.80;;;;;22.27;13.99;100491.94;7688148;22;98466;-69
2023/02/10 07:48:15;;;;;;;;;45.50;37.25;;;;;22.70;14.15;100487.34;7740894;22;96490;-69
2023/02/10 07:51:19;;;;;;;;;46.75;36.75;;;;;23.12;13.65;100481.91;7741109;22;96414;-68
2023/02/10 07:54:22;;;;;;;;;47.00;38.00;;;;;23.68;13.63;100494.09;7740373;22;96507;-69
2023/02/10 07:57:27;;;;;;;;;45.40;37.60;;;;;23.86;12.97;100484.50;7739776;22;96249;-69
2023/02/10 08:00:30;;;;;;;;;45.00;36.00;;;;;24.21;13.04;100492.06;7711583;22;98470;-66
2023/02/10 08:03:34;;;;;;;;;43.50;35.75;;;;;24.41;12.59;100500.38;7711877;22;96220;-66
2023/02/10 08:06:37;;;;;;;;;40.00;35.00;;;;;24.88;12.42;100514.78;7688758;22;97107;-68
2023/02/10 08:09:41;;;;;;;;;41.00;34.00;;;;;25.29;12.39;100510.03;7742817;22;96246;-69
2023/02/10 08:12:46;;;;;;;;;45.25;38.00;;;;;25.71;12.09;100508.81;7713473;22;96673;-69
2023/02/10 08:15:50;;;;;;;;;38.20;33.20;;;;;26.02;12.01;100509.53;7740247;22;96082;-69
2023/02/10 08:18:54;;;;;;;;;38.40;33.00;;;;;26.22;11.86;100504.75;7710884;22;96820;-69
2023/02/10 08:21:59;;;;;;;;;39.40;34.00;;;;;26.51;11.82;100502.06;7739085;22;96203;-69
2023/02/10 08:25:03;;;;;;;;;45.00;36.00;;;;;26.85;11.31;100521.44;7736186;22;96362;-68
2023/02/10 08:28:08;;;;;;;;;42.40;35.00;;;;;26.91;11.47;100528.63;7710878;22;98388;-69
2023/02/10 08:31:11;;;;;;;;;44.60;36.20;;;;;27.25;11.08;100530.50;7710380;22;96491;-69
2023/02/10 08:34:16;;;;;;;;;44.25;36.00;;;;;27.36;10.82;100530.13;7684537;22;98368;-69
2023/02/10 08:37:21;;;;;;;;;45.00;35.40;;;;;27.76;10.28;100523.31;7683545;22;98368;-69
2023/02/10 08:40:27;;;;;;;;;45.00;37.60;;;;;27.96;10.89;100523.06;7736572;22;96565;-69
2023/02/10 08:43:32;;;;;;;;;44.50;37.75;;;;;28.13;10.58;100516.22;7737860;22;97075;-69
2023/02/10 08:46:36;;;;;;;;;47.00;38.00;;;;;28.35;10.04;100522.00;7709877;22;96796;-69
2023/02/10 08:49:40;;;;;;;;;49.00;38.00;;;;;28.21;10.14;100513.59;7737736;22;96421;-69
2023/02/10 08:52:45;;;;;;;;;47.00;37.25;;;;;27.97;10.53;100508.06;7709301;22;96655;-67
2023/02/10 08:55:56;;;;;;;;;42.60;36.00;;;;;27.99;10.02;100507.78;7709514;22;96680;-69
2023/02/10 08:59:04;;;;;;;;;45.00;35.00;;;;;28.12;10.35;100518.16;7710414;22;96959;-66
2023/02/10 09:02:07;;;;;;;;;42.60;35.80;;;;;27.65;10.58;100504.34;7711227;22;97047;-70
2023/02/10 09:05:11;;;;;;;;;45.00;35.00;;;;;27.40;10.24;100524.81;7738857;22;96268;-69
2023/02/10 09:08:15;;;;;;;;;47.00;36.00;;;;;27.12;10.70;100524.53;7739052;22;96547;-69
2023/02/10 09:11:19;;;;;;;;;43.00;35.25;;;;;26.60;10.97;100516.09;7711273;22;96745;-70
2023/02/10 09:14:24;;;;;;;;;47.00;37.40;;;;;26.39;11.34;100518.16;7712059;22;97014;-69
2023/02/10 09:17:27;;;;;;;;;46.00;37.00;;;;;26.06;11.59;100521.66;7686675;22;98722;-65
2023/02/10 09:20:30;;;;;;;;;41.60;34.60;;;;;25.75;11.75;100532.03;7739152;22;96294;-63
2023/02/10 09:23:33;;;;;;;;;43.50;34.75;;;;;25.25;11.80;100527.44;7712305;22;96319;-67
2023/02/10 09:26:37;;;;;;;;;43.00;35.00;;;;;25.73;11.96;100529.56;7739890;22;96234;-66
2023/02/10 09:29:41;;;;;;;;;44.80;35.00;;;;;25.39;11.93;100539.56;7738267;22;96352;-67
2023/02/10 09:32:45;;;;;;;;;42.00;36.00;;;;;25.14;12.00;100532.16;7737684;22;96572;-66
2023/02/10 09:35:48;;;;;;;;;42.25;34.75;;;;;24.88;12.53;100524.97;7738072;22;96502;-66
2023/02/10 09:38:52;;;;;;;;;42.80;34.80;;;;;25.14;12.50;100525.78;7709336;22;98586;-68
2023/02/10 09:42:02;;;;;;;;;41.00;33.40;;;;;25.48;11.98;100512.19;7711249;22;96503;-66
2023/02/10 09:45:13;;;;;;;;;40.40;34.00;;;;;25.85;11.61;100507.94;7709882;22;98634;-68
2023/02/10 09:48:29;;;;;;;;;44.00;36.00;;;;;26.49;11.37;100503.44;7709103;22;96190;-68
2023/02/10 09:51:44;;;;;;;;;39.40;33.00;;;;;26.93;11.04;100504.22;7734480;22;96355;-68
2023/02/10 09:54:48;;;;;;;;;42.40;33.40;;;;;27.34;10.63;100520.44;7735411;22;96194;-69
2023/02/10 09:57:58;;;;;;;;;40.50;33.75;;;;;28.05;10.33;100509.38;7735203;22;96492;-69
2023/02/10 10:01:11;;;;;;;;;36.00;32.00;;;;;28.60;9.98;100512.44;7735401;22;97056;-70
2023/02/10 10:04:16;;;;;;;;;39.60;33.00;;;;;29.08;10.11;100510.28;7736255;22;96440;-69
2023/02/10 10:07:28;;;;;;;;;37.00;32.00;;;;;29.21;9.74;100510.31;7735104;22;96721;-69
2023/02/10 10:10:40;;;;;;;;;35.20;32.00;;;;;29.03;10.09;100508.41;7735468;22;96203;-68
2023/02/10 10:13:43;;;;;;;;;33.40;31.00;;;;;29.05;9.93;100510.91;7708277;22;97127;-69
2023/02/10 10:17:02;;;;;;;;;35.00;31.00;;;;;28.34;9.91;100504.56;7707888;22;97573;-69
2023/02/10 10:20:30;;;;;;;;;36.20;32.00;;;;;27.41;10.49;100485.75;7736146;22;96731;-69
2023/02/10 10:23:49;;;;;;;;;37.00;33.00;;;;;26.74;11.07;100501.31;7708676;22;96853;-69
2023/02/10 10:27:07;;;;;;;;;37.00;32.00;;;;;26.61;11.12;100481.78;7735694;22;96386;-69
2023/02/10 10:30:17;;;;;;;;;37.00;32.50;;;;;26.91;11.24;100489.88;7736372;22;96361;-69
2023/02/10 10:33:28;;;;;;;;;36.00;32.00;;;;;26.39;11.67;100443.50;7735731;22;96300;-69
2023/02/10 10:36:35;;;;;;;;;34.60;32.00;;;;;26.52;11.11;100487.13;7737855;22;96276;-68
2023/02/10 10:39:43;;;;;;;;;35.50;31.75;;;;;27.03;11.36;100492.22;7738031;22;96236;-69
2023/02/10 10:42:49;;;;;;;;;34.50;29.50;;;;;27.20;11.62;100480.72;7709783;22;96959;-70
2023/02/10 10:46:00;;;;;;;;;33.20;30.00;;;;;26.35;10.78;100489.44;7736206;22;96302;-69
2023/02/10 10:49:05;;;;;;;;;36.80;32.00;;;;;25.38;12.01;100480.75;7736734;22;96566;-68
2023/02/10 10:52:27;;;;;;;;;34.00;30.00;;;;;24.87;12.10;100482.78;7736317;22;97532;-68
2023/02/10 10:55:36;;;;;;;;;35.00;30.00;;;;;23.94;13.09;100473.81;7736976;22;96353;-68
2023/02/10 10:58:44;;;;;;;;;35.40;31.00;;;;;22.56;14.09;100472.41;7709822;22;96767;-68
2023/02/10 11:01:51;;;;;;;;;31.00;29.00;;;;;21.41;14.85;100462.59;7709323;22;96919;-68
2023/02/10 11:05:05;;;;;;;;;41.00;33.50;;;;;20.73;15.14;100464.59;7709947;22;96510;-68
2023/02/10 11:08:22;;;;;;;;;37.80;32.00;;;;;20.58;15.59;100460.78;7709201;22;97861;-68
2023/02/10 11:11:33;;;;;;;;;34.40;30.00;;;;;20.76;15.81;100460.53;7709353;22;100537;-67
2023/02/10 11:14:43;;;;;;;;;33.00;30.00;;;;;21.15;15.56;100445.81;7738554;22;96828;-67
2023/02/10 11:17:49;;;;;;;;;37.60;31.60;;;;;21.34;15.09;100448.25;7740356;22;96898;-68
2023/02/10 11:20:56;;;;;;;;;36.50;30.50;;;;;20.58;15.21;100469.84;7711132;22;97524;-67
2023/02/10 11:24:00;;;;;;;;;35.60;30.00;;;;;20.14;16.14;100446.00;7738699;22;96985;-68
2023/02/10 11:27:06;;;;;;;;;37.00;31.00;;;;;20.06;16.13;100443.69;7737565;22;96509;-67
2023/02/10 11:30:26;;;;;;;;;33.00;30.00;;;;;19.36;16.88;100420.13;7739955;22;96850;-67
2023/02/10 11:33:32;;;;;;;;;27.00;25.00;;;;;18.99;16.94;100440.66;7737544;22;96290;-67
2023/02/10 11:36:39;;;;;;;;;32.00;27.50;;;;;18.87;17.43;100424.25;7710413;22;96384;-67
2023/02/10 11:39:46;;;;;;;;;30.00;27.00;;;;;18.56;17.43;100427.34;7709859;22;97129;-67
2023/02/10 11:42:52;;;;;;;;;32.20;29.80;;;;;17.96;17.90;100416.50;7736870;22;96220;-68
2023/02/10 11:45:57;;;;;;;;;29.40;26.00;;;;;18.27;18.05;100428.22;7710465;22;96364;-67
2023/02/10 11:49:03;;;;;;;;;30.40;27.00;;;;;18.17;18.19;100421.44;7737073;22;96312;-67
2023/02/10 11:52:07;;;;;;;;;28.50;26.75;;;;;18.14;18.15;100435.53;7709960;22;96620;-67
2023/02/10 11:55:13;;;;;;;;;26.60;23.00;;;;;18.08;18.24;100435.66;7735435;22;96338;-67
2023/02/10 11:59:01;;;;;;;;;24.80;23.40;;;;;18.13;18.12;100422.94;7738135;22;97075;-67
2023/02/10 12:02:17;;;;;;;;;29.25;23.25;;;;;18.51;17.59;100421.72;7685294;22;97002;-68
2023/02/10 12:05:29;;;;;;;;;23.80;22.00;;;;;18.80;17.56;100412.63;7738359;22;96277;-67
2023/02/10 12:08:42;;;;;;;;;26.50;25.00;;;;;18.58;17.46;100414.25;7711090;22;96556;-67
2023/02/10 12:11:54;;;;;;;;;24.60;22.00;;;;;18.15;17.85;100422.72;7738670;22;97557;-67
2023/02/10 12:15:08;;;;;;;;;26.20;22.80;;;;;17.52;18.46;100430.53;7738629;22;96279;-67
2023/02/10 12:18:30;;;;;;;;;28.00;24.60;;;;;17.04;19.32;100431.31;7736965;22;96488;-66
2023/02/10 12:22:01;;;;;;;;;26.40;25.00;;;;;16.59;19.56;100427.16;7741418;22;96312;-67
2023/02/10 12:25:15;;;;;;;;;27.00;25.00;;;;;15.95;20.08;100429.09;7736153;22;96342;-65
2023/02/10 12:28:28;;;;;;;;;28.50;27.75;;;;;14.66;21.70;100409.28;7709608;22;96225;-65
2023/02/10 12:31:42;;;;;;;;;28.00;24.40;;;;;14.28;22.26;100435.38;7736359;22;96293;-64
2023/02/10 12:35:08;;;;;;;;;30.00;25.60;;;;;13.73;22.87;100431.94;7709460;22;98315;-64
2023/02/10 12:38:30;;;;;;;;;31.00;29.00;;;;;13.24;23.37;100434.06;7736817;22;96179;-65
2023/02/10 12:41:47;;;;;;;;;29.33;26.00;;;;;12.90;23.75;100443.03;7736551;22;96411;-64
2023/02/10 12:45:00;;;;;;;;;32.00;28.00;;;;;12.41;24.30;100440.38;7736221;22;96518;-65
2023/02/10 12:48:20;;;;;;;;;30.40;27.40;;;;;12.17;24.98;100436.19;7710833;22;98273;-66
2023/02/10 12:51:46;;;;;;;;;31.00;29.00;;;;;12.09;25.46;100439.88;7709350;22;96387;-67
2023/02/10 12:54:54;;;;;;;;;34.00;29.60;;;;;12.18;25.17;100447.84;7709549;22;96591;-68
2023/02/10 12:58:04;;;;;;;;;30.80;27.40;;;;;12.05;25.77;100457.53;7709797;22;98199;-69
2023/02/10 13:01:14;;;;;;;;;36.00;30.00;;;;;12.28;25.36;100445.66;7708404;22;96479;-68
2023/02/10 13:04:25;;;;;;;;;30.20;28.60;;;;;12.28;25.10;100454.63;7735248;22;96408;-69
2023/02/10 13:07:37;;;;;;;;;29.20;27.40;;;;;12.28;25.54;100468.13;7736130;22;96468;-68
2023/02/10 13:10:44;;;;;;;;;31.40;27.00;;;;;12.30;25.25;100465.25;7708306;22;96677;-69
2023/02/10 13:13:51;;;;;;;;;29.60;27.00;;;;;12.50;25.10;100452.72;7736561;22;96394;-66
2023/02/10 13:16:58;;;;;;;;;31.40;29.40;;;;;12.77;24.44;100449.16;7736515;22;96329;-68
2023/02/10 13:20:08;;;;;;;;;31.00;29.00;;;;;13.17;24.38;100441.31;7736441;22;97464;-68
2023/02/10 13:23:21;;;;;;;;;34.60;31.00;;;;;13.21;24.33;100435.31;7709385;22;96269;-68
2023/02/10 13:26:39;;;;;;;;;31.75;28.75;;;;;13.75;23.65;100426.31;7709602;22;96789;-70
2023/02/10 13:29:53;;;;;;;;;34.00;30.00;;;;;13.94;23.08;100446.38;7736620;22;96509;-70
2023/02/10 13:33:05;;;;;;;;;31.00;29.40;;;;;13.53;23.61;100444.63;7708779;22;96337;-69
2023/02/10 13:36:15;;;;;;;;;27.00;25.00;;;;;12.81;24.55;100469.38;7735986;22;96525;-69
2023/02/10 13:39:21;;;;;;;;;29.20;26.80;;;;;12.60;24.93;100458.66;7734474;22;96343;-69
2023/02/10 13:42:29;;;;;;;;;30.40;26.40;;;;;12.73;24.90;100453.31;7707978;22;96816;-69
2023/02/10 13:45:38;;;;;;;;;32.50;29.50;;;;;12.99;24.50;100460.78;7735830;22;96343;-69
2023/02/10 13:48:43;;;;;;;;;23.20;21.80;;;;;12.53;25.96;100469.41;7736093;22;96373;-69
2023/02/10 13:51:47;;;;;;;;;25.00;23.40;;;;;12.12;27.54;100460.28;7735880;22;96374;-69
2023/02/10 13:55:01;;;;;;;;;27.50;25.00;;;;;11.85;28.17;100471.88;7735790;22;96291;-69
2023/02/10 13:58:25;;;;;;;;;26.00;24.75;;;;;11.50;29.03;100462.69;7735877;22;96210;-69
2023/02/10 14:01:37;;;;;;;;;25.40;22.40;;;;;11.17;29.83;100471.22;7734471;22;96532;-69
2023/02/10 14:04:42;;;;;;;;;29.00;25.75;;;;;10.87;30.11;100477.63;7735727;22;96419;-69
2023/02/10 14:07:48;;;;;;;;;27.20;26.00;;;;;10.77;30.17;100468.97;7736284;22;96864;-69
2023/02/10 14:10:58;;;;;;;;;28.00;27.20;;;;;10.84;30.62;100486.09;7735471;22;96249;-68
2023/02/10 14:14:05;;;;;;;;;27.00;25.00;;;;;10.54;31.89;100481.69;7682669;22;96614;-69
2023/02/10 14:17:24;;;;;;;;;22.60;21.60;;;;;10.23;32.60;100471.81;7735583;22;96368;-69
2023/02/10 14:20:31;;;;;;;;;25.40;21.40;;;;;10.11;32.80;100485.88;7708796;22;96410;-69
2023/02/10 14:23:38;;;;;;;;;26.20;23.00;;;;;10.00;33.28;100479.06;7734244;22;96429;-69